Time;durP1;ratioP1;P1;durP2;ratioP2;P2;SDS_P1;SDS_P2;PMS_P1;PMS_P2;Temp;Humidity;BMP_temperature;BMP_pressure;BME280_temperature;BME280_humidity;BME280_pressure;Samples;Min_cycle;Max_cycle;Signal;HPM_P1;HPM_P2
2021/03/07 00:00:36;;;;;;;7.20;3.13;;;16.80;99.30;;;;;;5092137;28;20049;-63
2021/03/07 00:03:02;;;;;;;7.25;3.30;;;16.80;99.40;;;;;;5092372;28;20028;-63
2021/03/07 00:05:28;;;;;;;6.75;3.10;;;16.80;99.50;;;;;;5092681;28;20024;-63
2021/03/07 00:07:55;;;;;;;7.30;3.28;;;16.70;99.40;;;;;;5092295;28;20475;-63
2021/03/07 00:10:21;;;;;;;5.60;3.28;;;16.70;99.40;;;;;;5092928;28;20032;-64
2021/03/07 00:12:49;;;;;;;6.82;3.42;;;16.70;99.60;;;;;;5092163;28;20028;-63
2021/03/07 00:15:16;;;;;;;7.25;3.28;;;16.70;99.60;;;;;;5092331;28;20468;-64
2021/03/07 00:17:42;;;;;;;7.30;3.13;;;16.70;99.50;;;;;;5092339;28;20036;-63
2021/03/07 00:20:11;;;;;;;5.80;3.33;;;16.70;99.60;;;;;;5092430;28;20028;-66
2021/03/07 00:22:36;;;;;;;4.80;3.03;;;16.60;99.40;;;;;;5091688;28;20046;-64
2021/03/07 00:25:04;;;;;;;8.18;3.45;;;16.60;99.60;;;;;;5092198;28;20443;-66
2021/03/07 00:27:30;;;;;;;5.80;3.22;;;16.60;99.60;;;;;;5070646;28;20028;-67
2021/03/07 00:29:56;;;;;;;8.00;3.60;;;16.60;99.60;;;;;;5082970;28;20131;-66
2021/03/07 00:32:21;;;;;;;6.13;2.92;;;16.50;99.80;;;;;;5092522;28;20435;-67
2021/03/07 00:34:47;;;;;;;5.20;2.92;;;16.50;99.70;;;;;;5092615;28;20032;-69
2021/03/07 00:37:13;;;;;;;3.67;2.90;;;16.50;99.90;;;;;;5091727;28;20032;-67
2021/03/07 00:39:38;;;;;;;7.18;3.55;;;16.50;99.90;;;;;;5092150;28;20080;-68
2021/03/07 00:42:04;;;;;;;4.50;2.72;;;16.50;99.90;;;;;;5091556;28;20020;-68
2021/03/07 00:44:30;;;;;;;7.93;3.42;;;16.50;99.90;;;;;;5091596;28;20024;-68
2021/03/07 00:46:57;;;;;;;5.32;2.72;;;16.50;99.90;;;;;;5091743;28;20027;-65
2021/03/07 00:49:27;;;;;;;5.07;3.10;;;16.50;99.90;;;;;;5092128;28;20153;-64
2021/03/07 00:51:53;;;;;;;5.22;2.90;;;16.50;99.90;;;;;;5092092;28;20024;-64
2021/03/07 00:54:18;;;;;;;5.63;3.10;;;16.50;99.90;;;;;;5092333;28;20055;-68
2021/03/07 00:56:45;;;;;;;6.00;2.90;;;16.40;99.90;;;;;;5091242;28;20095;-68
2021/03/07 00:59:10;;;;;;;5.63;2.90;;;16.40;99.90;;;;;;5090353;28;20093;-65
2021/03/07 01:01:36;;;;;;;4.15;2.70;;;16.40;99.90;;;;;;5091918;28;20028;-66
2021/03/07 01:04:02;;;;;;;4.25;2.80;;;16.40;99.90;;;;;;5091151;28;20024;-64
2021/03/07 01:06:28;;;;;;;5.93;3.08;;;16.40;99.90;;;;;;5091645;28;20051;-65
2021/03/07 01:08:54;;;;;;;5.18;3.22;;;16.40;99.90;;;;;;5091797;28;20070;-64
2021/03/07 01:11:19;;;;;;;4.10;2.88;;;16.40;99.90;;;;;;5093845;28;20085;-65
2021/03/07 01:13:45;;;;;;;4.57;2.92;;;16.40;99.90;;;;;;5095361;28;20115;-67
2021/03/07 01:16:11;;;;;;;5.28;2.90;;;16.40;99.90;;;;;;5095235;28;20020;-68
2021/03/07 01:18:37;;;;;;;5.97;2.63;;;16.30;99.90;;;;;;5095836;28;20442;-68
2021/03/07 01:21:03;;;;;;;5.15;2.90;;;16.30;99.90;;;;;;5095361;28;20112;-66
2021/03/07 01:23:31;;;;;;;4.57;2.50;;;16.30;99.90;;;;;;5095638;28;20085;-68
2021/03/07 01:25:56;;;;;;;6.07;3.00;;;16.30;99.90;;;;;;5095247;28;20424;-67
2021/03/07 01:28:23;;;;;;;6.03;3.00;;;16.20;99.90;;;;;;5095721;28;20126;-68
2021/03/07 01:30:48;;;;;;;5.45;3.10;;;16.20;99.90;;;;;;5094904;28;20040;-66
2021/03/07 01:33:14;;;;;;;5.80;2.97;;;16.20;99.90;;;;;;5095516;28;20150;-67
2021/03/07 01:35:40;;;;;;;4.47;2.75;;;16.20;99.90;;;;;;5095563;28;20016;-68
2021/03/07 01:38:06;;;;;;;3.85;2.63;;;16.10;99.90;;;;;;5095051;28;20032;-65
2021/03/07 01:40:39;;;;;;;5.32;2.75;;;16.10;99.90;;;;;;5095499;28;20056;-65
2021/03/07 01:43:05;;;;;;;5.37;2.93;;;16.10;99.90;;;;;;5092604;28;20028;-64
2021/03/07 01:45:33;;;;;;;5.00;3.20;;;16.10;99.90;;;;;;5095065;28;20281;-68
2021/03/07 01:48:03;;;;;;;5.75;3.03;;;16.00;99.90;;;;;;5095117;28;20036;-65
2021/03/07 01:50:31;;;;;;;7.38;2.92;;;16.10;99.90;;;;;;5095510;28;20048;-66
2021/03/07 01:52:57;;;;;;;4.97;2.95;;;16.00;99.90;;;;;;5095170;28;20025;-63
2021/03/07 01:55:26;;;;;;;4.15;2.70;;;16.00;99.90;;;;;;5095339;28;20046;-64
2021/03/07 01:58:18;;;;;;;5.55;2.90;;;16.00;99.90;;;;;;5094611;28;20042;-64
2021/03/07 02:00:45;;;;;;;9.88;2.70;;;15.90;99.90;;;;;;5070520;28;20044;-64
2021/03/07 02:03:11;;;;;;;4.32;2.80;;;15.90;99.90;;;;;;5095019;28;20028;-66
2021/03/07 02:05:36;;;;;;;4.22;2.75;;;15.90;99.90;;;;;;5093478;28;20487;-66
2021/03/07 02:08:03;;;;;;;4.35;2.50;;;15.90;99.90;;;;;;5094831;28;20051;-65
2021/03/07 02:10:39;;;;;;;5.20;2.42;;;15.90;99.90;;;;;;5094261;28;20479;-67
2021/03/07 02:13:13;;;;;;;4.72;2.70;;;15.90;99.90;;;;;;5094669;28;20036;-65
2021/03/07 02:15:42;;;;;;;3.55;2.42;;;15.90;99.90;;;;;;5094492;28;20361;-64
2021/03/07 02:18:10;;;;;;;8.57;2.67;;;15.80;99.90;;;;;;5094503;28;20024;-64
2021/03/07 02:20:39;;;;;;;4.15;2.63;;;15.80;99.90;;;;;;5094557;28;20017;-66
2021/03/07 02:23:19;;;;;;;3.97;2.60;;;15.80;99.90;;;;;;5093777;28;20043;-64
2021/03/07 02:25:45;;;;;;;3.92;2.72;;;15.80;99.90;;;;;;5094087;28;20028;-65
2021/03/07 02:28:11;;;;;;;5.20;3.22;;;15.70;99.90;;;;;;5094136;28;20047;-69
2021/03/07 02:30:37;;;;;;;6.13;3.00;;;15.70;99.90;;;;;;5092593;28;20032;-68
2021/03/07 02:33:20;;;;;;;4.65;2.95;;;15.70;99.90;;;;;;5093079;28;20043;-69
2021/03/07 02:36:02;;;;;;;5.30;2.85;;;15.70;99.90;;;;;;5094054;28;20025;-70
2021/03/07 02:38:32;;;;;;;5.43;2.72;;;15.60;99.90;;;;;;5093243;28;20032;-69
2021/03/07 02:40:59;;;;;;;4.35;2.88;;;15.60;99.90;;;;;;5094030;28;20016;-68
2021/03/07 02:43:26;;;;;;;3.80;2.75;;;15.60;99.90;;;;;;5094486;28;20503;-68
2021/03/07 02:45:55;;;;;;;4.30;2.88;;;15.60;99.90;;;;;;5093509;28;20028;-69
2021/03/07 02:48:23;;;;;;;4.40;3.00;;;15.60;99.90;;;;;;5093836;28;20565;-68
2021/03/07 02:50:50;;;;;;;5.68;2.53;;;15.60;99.90;;;;;;5093657;28;20050;-69
2021/03/07 02:53:21;;;;;;;4.60;2.60;;;15.60;99.90;;;;;;5093844;28;20020;-68
2021/03/07 02:55:52;;;;;;;3.55;2.70;;;15.60;99.90;;;;;;5075603;28;20016;-68
2021/03/07 02:58:18;;;;;;;4.80;2.67;;;15.60;99.90;;;;;;5093064;28;20031;-68
2021/03/07 03:00:50;;;;;;;6.47;2.85;;;15.50;99.90;;;;;;5093532;28;20025;-69
2021/03/07 03:03:19;;;;;;;4.93;3.00;;;15.50;99.90;;;;;;5093878;28;20028;-69
2021/03/07 03:05:47;;;;;;;4.95;2.90;;;15.50;99.90;;;;;;5093644;28;20494;-69
2021/03/07 03:08:14;;;;;;;4.28;2.40;;;15.50;99.90;;;;;;5093602;28;20079;-65
2021/03/07 03:10:40;;;;;;;5.55;2.80;;;15.50;99.90;;;;;;5093481;28;20024;-68
2021/03/07 03:13:07;;;;;;;5.28;2.65;;;15.50;99.90;;;;;;5093593;28;20025;-65
2021/03/07 03:15:33;;;;;;;4.88;2.88;;;15.50;99.90;;;;;;5093324;28;20023;-67
2021/03/07 03:18:00;;;;;;;4.45;3.05;;;15.50;99.90;;;;;;5093551;28;20032;-65
2021/03/07 03:20:26;;;;;;;6.90;2.53;;;15.50;99.90;;;;;;5093020;28;20051;-66
2021/03/07 03:22:53;;;;;;;4.00;2.58;;;15.50;99.90;;;;;;5093486;28;20032;-64
2021/03/07 03:25:18;;;;;;;5.22;2.80;;;15.40;99.90;;;;;;5093439;28;20039;-63
2021/03/07 03:27:44;;;;;;;3.92;2.80;;;15.40;99.90;;;;;;5092767;28;20024;-66
2021/03/07 03:30:18;;;;;;;5.82;2.70;;;15.40;99.90;;;;;;5092923;28;20442;-65
2021/03/07 03:32:43;;;;;;;6.40;3.10;;;15.40;99.90;;;;;;5093180;28;20043;-64
2021/03/07 03:35:11;;;;;;;3.88;2.88;;;15.30;99.90;;;;;;5093267;28;20024;-64
2021/03/07 03:37:39;;;;;;;3.58;2.50;;;15.40;99.90;;;;;;5092363;28;20024;-64
2021/03/07 03:40:08;;;;;;;5.13;2.78;;;15.40;99.90;;;;;;5092852;28;20024;-65
2021/03/07 03:42:37;;;;;;;3.58;2.42;;;15.30;99.90;;;;;;5092724;28;20020;-65
2021/03/07 03:45:05;;;;;;;4.15;2.97;;;15.30;99.90;;;;;;5092733;28;20053;-62
2021/03/07 03:47:30;;;;;;;4.05;3.30;;;15.30;99.90;;;;;;5092928;28;20063;-64
2021/03/07 03:49:59;;;;;;;5.55;2.75;;;15.10;98.80;;;;;;5092978;28;20059;-65
2021/03/07 03:52:26;;;;;;;5.03;3.03;;;15.10;99.50;;;;;;5092731;28;20111;-65
2021/03/07 03:55:02;;;;;;;6.70;3.05;;;15.20;99.20;;;;;;5092398;28;20035;-65
2021/03/07 03:57:30;;;;;;;5.45;3.25;;;15.20;99.20;;;;;;5092532;28;20071;-64
2021/03/07 03:59:57;;;;;;;7.40;3.33;;;15.20;99.20;;;;;;5092787;28;20089;-67
2021/03/07 04:02:26;;;;;;;7.10;2.90;;;15.20;99.60;;;;;;5092632;28;20034;-65
2021/03/07 04:04:57;;;;;;;6.20;2.90;;;15.20;99.70;;;;;;5092654;28;20020;-68
2021/03/07 04:07:25;;;;;;;5.45;3.00;;;15.20;99.90;;;;;;5092207;28;20016;-68
2021/03/07 04:09:53;;;;;;;6.68;3.30;;;15.20;99.90;;;;;;5092518;28;20491;-65
2021/03/07 04:12:21;;;;;;;5.63;2.92;;;15.20;99.90;;;;;;5092269;28;20024;-64
2021/03/07 04:14:47;;;;;;;4.50;2.88;;;15.20;99.90;;;;;;5092456;28;20028;-65
2021/03/07 04:17:18;;;;;;;3.38;2.80;;;15.20;99.90;;;;;;5092001;28;20059;-64
2021/03/07 04:19:45;;;;;;;3.90;3.08;;;15.20;99.90;;;;;;5092476;28;20020;-64
2021/03/07 04:22:12;;;;;;;5.20;3.10;;;15.10;99.90;;;;;;5091638;28;20047;-64
2021/03/07 04:24:38;;;;;;;4.80;2.72;;;15.20;99.90;;;;;;5092478;28;20016;-65
2021/03/07 04:27:04;;;;;;;6.40;2.63;;;15.10;99.90;;;;;;5092571;28;20521;-67
2021/03/07 04:29:31;;;;;;;4.13;2.65;;;15.10;99.90;;;;;;5091607;28;20032;-65
2021/03/07 04:31:57;;;;;;;3.60;2.63;;;15.10;99.90;;;;;;5092168;28;20085;-67
2021/03/07 04:34:23;;;;;;;4.53;3.00;;;15.10;99.90;;;;;;5092042;28;20028;-65
2021/03/07 04:36:50;;;;;;;4.43;2.67;;;15.10;99.90;;;;;;5091196;28;20505;-65
2021/03/07 04:39:16;;;;;;;5.32;2.80;;;15.10;99.90;;;;;;5092134;28;20028;-65
2021/03/07 04:41:41;;;;;;;5.82;2.80;;;15.10;99.90;;;;;;5092192;28;20082;-64
2021/03/07 04:44:08;;;;;;;4.43;2.60;;;15.10;99.90;;;;;;5091824;28;20031;-64
2021/03/07 04:46:33;;;;;;;3.63;2.47;;;15.10;99.90;;;;;;5092062;28;20016;-67
2021/03/07 04:48:59;;;;;;;4.30;2.38;;;15.10;99.90;;;;;;5091134;28;20057;-67
2021/03/07 04:51:25;;;;;;;4.13;2.60;;;15.10;99.90;;;;;;5091418;28;20384;-66
2021/03/07 04:53:50;;;;;;;4.38;2.60;;;15.10;99.90;;;;;;5092162;28;20024;-66
2021/03/07 04:56:16;;;;;;;4.53;2.65;;;15.10;99.90;;;;;;5092126;28;20026;-69
2021/03/07 04:58:42;;;;;;;7.43;2.72;;;15.10;99.90;;;;;;5091112;28;20357;-67
2021/03/07 05:01:08;;;;;;;5.05;2.50;;;15.10;99.90;;;;;;5091651;28;20020;-68
2021/03/07 05:03:34;;;;;;;4.00;2.72;;;15.10;99.90;;;;;;5092244;28;20050;-68
2021/03/07 05:06:00;;;;;;;3.08;2.40;;;15.10;99.90;;;;;;5091739;28;20024;-68
2021/03/07 05:08:26;;;;;;;2.97;2.20;;;15.10;99.90;;;;;;5091724;28;20043;-69
2021/03/07 05:10:53;;;;;;;4.00;2.72;;;15.10;99.90;;;;;;5091464;28;20024;-69
2021/03/07 05:13:18;;;;;;;3.97;2.72;;;15.10;99.90;;;;;;5091817;28;20109;-65
2021/03/07 05:15:44;;;;;;;4.40;2.60;;;15.00;99.90;;;;;;5091237;28;20060;-64
2021/03/07 05:18:10;;;;;;;3.67;2.50;;;15.00;99.90;;;;;;5091613;28;20456;-65
2021/03/07 05:20:35;;;;;;;5.65;2.40;;;15.00;99.90;;;;;;5092011;28;20493;-64
2021/03/07 05:23:01;;;;;;;3.45;2.65;;;15.00;99.90;;;;;;5091121;28;20016;-64
2021/03/07 05:25:27;;;;;;;4.60;2.40;;;15.00;99.90;;;;;;5091391;28;20036;-64
2021/03/07 05:27:53;;;;;;;5.32;2.70;;;15.00;99.90;;;;;;5091492;28;20032;-64
2021/03/07 05:30:19;;;;;;;4.07;2.33;;;15.00;99.90;;;;;;5091186;28;20044;-64
2021/03/07 05:32:45;;;;;;;6.68;2.60;;;15.00;99.90;;;;;;5091377;28;20401;-64
2021/03/07 05:35:11;;;;;;;3.95;2.50;;;14.90;99.90;;;;;;5091649;28;20032;-65
2021/03/07 05:37:38;;;;;;;3.08;2.35;;;14.90;99.90;;;;;;5091485;28;20049;-65
2021/03/07 05:40:05;;;;;;;5.30;2.72;;;15.00;99.90;;;;;;5091647;28;20107;-65
2021/03/07 05:42:33;;;;;;;4.80;2.65;;;15.00;99.90;;;;;;5089639;28;20150;-65
2021/03/07 05:44:59;;;;;;;4.15;2.20;;;14.90;99.90;;;;;;5091521;28;20342;-65
2021/03/07 05:47:25;;;;;;;4.82;2.40;;;14.90;99.90;;;;;;5091480;28;20024;-65
2021/03/07 05:49:51;;;;;;;3.00;2.28;;;15.00;99.90;;;;;;5090618;28;20364;-65
2021/03/07 05:52:20;;;;;;;7.13;2.75;;;14.90;99.90;;;;;;5090914;28;20023;-64
2021/03/07 05:54:46;;;;;;;3.85;2.47;;;14.90;99.90;;;;;;5091069;28;20031;-65
2021/03/07 05:57:13;;;;;;;5.53;2.42;;;14.90;99.90;;;;;;5091592;28;20028;-64
2021/03/07 05:59:39;;;;;;;4.38;2.00;;;14.90;99.90;;;;;;5093403;28;20375;-65
2021/03/07 06:02:06;;;;;;;3.85;2.35;;;14.90;99.90;;;;;;5105978;28;20379;-64
2021/03/07 06:04:31;;;;;;;4.50;2.85;;;14.90;99.90;;;;;;5094693;28;20028;-64
2021/03/07 06:06:57;;;;;;;3.70;2.20;;;14.90;99.90;;;;;;5095003;28;20107;-65
2021/03/07 06:09:29;;;;;;;5.57;2.70;;;14.90;99.90;;;;;;5094798;28;20036;-65
2021/03/07 06:11:57;;;;;;;5.65;2.63;;;14.90;99.90;;;;;;5094917;28;20475;-64
2021/03/07 06:14:33;;;;;;;4.60;2.45;;;14.90;99.90;;;;;;5094429;28;20430;-67
2021/03/07 06:17:01;;;;;;;5.68;2.50;;;14.90;99.90;;;;;;5094728;28;20107;-65
2021/03/07 06:19:28;;;;;;;3.67;2.40;;;14.90;99.90;;;;;;5094159;28;20106;-66
2021/03/07 06:21:54;;;;;;;3.38;2.40;;;14.80;99.90;;;;;;5094068;28;20043;-66
2021/03/07 06:24:37;;;;;;;2.63;1.95;;;14.90;99.90;;;;;;5093956;28;20028;-64
2021/03/07 06:27:13;;;;;;;3.33;2.17;;;14.80;99.90;;;;;;5094849;28;20184;-65
2021/03/07 06:29:54;;;;;;;5.15;2.33;;;14.80;99.90;;;;;;5094103;28;20472;-65
2021/03/07 06:32:20;;;;;;;2.75;2.10;;;14.80;99.90;;;;;;5094240;28;20020;-65
2021/03/07 06:34:48;;;;;;;4.25;2.30;;;14.80;99.90;;;;;;5094473;28;20024;-67
2021/03/07 06:37:14;;;;;;;4.88;2.40;;;14.70;99.90;;;;;;5094176;28;20040;-66
2021/03/07 06:39:40;;;;;;;4.07;2.90;;;14.70;99.90;;;;;;5094435;28;20047;-66
2021/03/07 06:42:07;;;;;;;3.25;2.22;;;14.70;99.90;;;;;;5093612;28;20101;-65
2021/03/07 06:44:35;;;;;;;4.07;2.40;;;14.70;99.90;;;;;;5093852;28;20506;-66
2021/03/07 06:47:12;;;;;;;9.80;2.35;;;14.70;99.90;;;;;;5093831;28;20111;-65
2021/03/07 06:49:39;;;;;;;3.80;2.53;;;14.70;99.90;;;;;;5093910;28;20113;-66
2021/03/07 06:52:15;;;;;;;3.33;2.45;;;14.70;99.90;;;;;;5093623;28;20028;-66
2021/03/07 06:54:43;;;;;;;2.50;2.00;;;14.70;99.90;;;;;;5094252;28;20116;-67
2021/03/07 06:57:08;;;;;;;4.63;2.33;;;14.70;99.90;;;;;;5093729;28;20545;-67
2021/03/07 06:59:35;;;;;;;3.50;1.90;;;14.70;99.90;;;;;;5092900;28;20028;-67
2021/03/07 07:02:08;;;;;;;4.75;2.70;;;14.60;99.90;;;;;;5094169;28;20024;-65
2021/03/07 07:04:42;;;;;;;3.08;2.58;;;14.60;99.90;;;;;;5093707;28;20039;-66
2021/03/07 07:07:14;;;;;;;3.75;2.45;;;14.60;99.90;;;;;;5094081;28;20035;-68
2021/03/07 07:09:41;;;;;;;4.55;2.42;;;14.60;99.90;;;;;;5093758;28;20040;-66
2021/03/07 07:12:08;;;;;;;4.28;2.33;;;14.60;99.90;;;;;;5093482;28;20028;-68
2021/03/07 07:14:40;;;;;;;2.80;2.03;;;14.60;99.90;;;;;;5093236;28;20038;-68
2021/03/07 07:17:09;;;;;;;4.97;2.70;;;14.60;99.90;;;;;;5093777;28;20077;-68
2021/03/07 07:19:35;;;;;;;4.38;2.70;;;14.60;98.90;;;;;;5093012;28;20020;-63
2021/03/07 07:22:01;;;;;;;20.42;2.70;;;14.40;99.30;;;;;;5093829;28;20016;-63
2021/03/07 07:24:26;;;;;;;6.75;2.60;;;14.50;99.10;;;;;;5106864;28;20146;-63
2021/03/07 07:26:52;;;;;;;4.88;2.60;;;14.50;98.70;;;;;;5088250;28;20030;-63
2021/03/07 07:29:18;;;;;;;9.15;2.63;;;14.60;99.00;;;;;;5093649;28;20418;-63
2021/03/07 07:32:04;;;;;;;3.47;2.72;;;14.60;99.10;;;;;;5093136;28;20047;-62
2021/03/07 07:34:50;;;;;;;5.13;2.90;;;14.60;99.40;;;;;;5092425;28;20025;-62
2021/03/07 07:37:32;;;;;;;10.45;3.03;;;14.60;99.80;;;;;;5084653;28;20028;-63
2021/03/07 07:39:59;;;;;;;9.48;2.72;;;14.70;99.90;;;;;;5094664;28;20031;-63
2021/03/07 07:42:29;;;;;;;7.65;2.83;;;14.70;99.80;;;;;;5090031;28;20032;-62
2021/03/07 07:45:00;;;;;;;8.82;2.83;;;14.80;99.90;;;;;;5099062;28;20048;-62
2021/03/07 07:47:51;;;;;;;9.68;2.60;;;14.80;99.90;;;;;;5113417;28;20418;-62
2021/03/07 07:50:30;;;;;;;7.22;2.75;;;14.90;99.30;;;;;;5109143;28;20047;-67
2021/03/07 07:52:58;;;;;;;10.68;2.65;;;14.80;97.50;;;;;;5095475;28;20503;-61
2021/03/07 07:55:43;;;;;;;7.32;3.08;;;14.70;97.60;;;;;;5092954;28;20039;-61
2021/03/07 07:58:09;;;;;;;7.63;2.67;;;14.60;96.90;;;;;;5098339;28;20392;-64
2021/03/07 08:00:51;;;;;;;7.85;5.05;;;14.60;96.30;;;;;;5093389;28;20023;-63
2021/03/07 08:03:30;;;;;;;10.98;7.05;;;14.10;94.30;;;;;;5087499;28;20024;-63
2021/03/07 08:05:57;;;;;;;7.57;4.50;;;13.50;93.90;;;;;;5106990;28;20034;-62
2021/03/07 08:08:34;;;;;;;4.38;3.47;;;14.00;93.60;;;;;;5107020;28;20035;-62
2021/03/07 08:11:01;;;;;;;7.45;3.00;;;14.40;93.10;;;;;;5098273;28;20033;-62
2021/03/07 08:13:26;;;;;;;6.85;3.10;;;14.70;93.10;;;;;;5096215;28;20352;-63
2021/03/07 08:15:53;;;;;;;10.82;2.80;;;14.90;92.90;;;;;;5099247;28;20047;-63
2021/03/07 08:18:20;;;;;;;8.18;2.85;;;15.00;92.70;;;;;;5091554;28;20408;-63
2021/03/07 08:20:46;;;;;;;5.13;2.67;;;15.10;92.60;;;;;;5092772;28;20500;-62
2021/03/07 08:23:13;;;;;;;5.40;2.83;;;15.10;92.30;;;;;;5092785;28;20024;-64
2021/03/07 08:25:50;;;;;;;4.22;2.65;;;15.20;91.80;;;;;;5104246;28;20407;-65
2021/03/07 08:28:41;;;;;;;4.82;2.83;;;15.30;91.60;;;;;;5103402;28;20479;-64
2021/03/07 08:31:19;;;;;;;4.22;2.35;;;15.30;91.40;;;;;;5072026;28;20423;-64
2021/03/07 08:33:44;;;;;;;5.60;2.80;;;15.40;91.40;;;;;;5082382;28;20357;-62
2021/03/07 08:36:20;;;;;;;4.38;2.65;;;15.40;91.20;;;;;;5093277;28;20035;-62
2021/03/07 08:38:49;;;;;;;5.30;2.78;;;15.50;91.20;;;;;;5092045;28;20047;-64
2021/03/07 08:41:25;;;;;;;5.32;2.85;;;15.60;91.00;;;;;;5095348;28;20476;-65
2021/03/07 08:43:51;;;;;;;4.43;2.75;;;15.60;90.90;;;;;;5087866;28;20110;-63
2021/03/07 08:46:26;;;;;;;5.63;3.00;;;15.70;90.90;;;;;;5092649;28;20097;-63
2021/03/07 08:49:06;;;;;;;7.05;2.90;;;15.80;90.80;;;;;;5091005;28;20097;-63
2021/03/07 08:51:37;;;;;;;6.32;2.72;;;15.90;90.90;;;;;;5095601;28;20032;-62
2021/03/07 08:54:08;;;;;;;4.97;2.70;;;16.00;90.80;;;;;;5094110;28;20020;-63
2021/03/07 08:56:38;;;;;;;6.85;4.18;;;16.10;90.70;;;;;;5108076;28;20499;-61
2021/03/07 08:59:05;;;;;;;7.63;4.60;;;16.00;90.70;;;;;;5109996;28;20115;-63
2021/03/07 09:01:31;;;;;;;9.00;3.30;;;15.30;91.40;;;;;;5110534;28;20024;-65
2021/03/07 09:04:01;;;;;;;5.93;3.38;;;15.60;91.80;;;;;;5112442;28;20023;-63
2021/03/07 09:06:38;;;;;;;4.30;3.22;;;15.90;91.60;;;;;;5109414;28;20031;-66
2021/03/07 09:09:20;;;;;;;6.95;2.92;;;16.10;91.30;;;;;;5112155;28;20074;-63
2021/03/07 09:11:49;;;;;;;6.45;3.17;;;16.20;92.20;;;;;;5108406;28;20024;-64
2021/03/07 09:14:15;;;;;;;4.57;3.25;;;16.30;92.70;;;;;;5102869;28;20036;-66
2021/03/07 09:16:48;;;;;;;6.15;2.95;;;16.30;94.00;;;;;;5111942;28;20024;-66
2021/03/07 09:19:34;;;;;;;6.00;3.08;;;16.30;93.70;;;;;;5109162;28;20587;-62
2021/03/07 09:22:16;;;;;;;4.97;2.42;;;16.40;93.80;;;;;;5104173;28;20036;-67
2021/03/07 09:24:47;;;;;;;3.83;2.60;;;16.40;93.50;;;;;;5110951;28;20030;-69
2021/03/07 09:27:14;;;;;;;4.72;2.60;;;16.50;92.80;;;;;;5106410;28;20108;-61
2021/03/07 09:30:11;;;;;;;4.78;2.67;;;16.60;92.60;;;;;;5110496;28;20046;-62
2021/03/07 09:32:45;;;;;;;6.35;2.45;;;16.80;92.60;;;;;;5114488;28;20548;-64
2021/03/07 09:35:25;;;;;;;5.57;2.45;;;16.90;92.90;;;;;;5115091;28;20402;-62
2021/03/07 09:37:59;;;;;;;4.75;2.50;;;16.90;92.70;;;;;;5107911;28;20051;-62
2021/03/07 09:40:26;;;;;;;4.50;2.30;;;17.00;92.60;;;;;;5113413;28;20035;-62
2021/03/07 09:43:00;;;;;;;3.05;2.15;;;17.00;92.80;;;;;;5109946;28;20031;-62
2021/03/07 09:45:27;;;;;;;5.95;2.28;;;17.20;93.40;;;;;;5088575;28;20111;-62
2021/03/07 09:47:54;;;;;;;4.93;2.50;;;17.50;93.50;;;;;;5090075;28;20032;-63
2021/03/07 09:50:22;;;;;;;4.75;2.30;;;17.70;93.40;;;;;;5091176;28;20039;-63
2021/03/07 09:52:48;;;;;;;3.47;1.83;;;17.90;94.20;;;;;;5094733;28;20025;-62
2021/03/07 09:55:26;;;;;;;6.38;2.70;;;18.00;93.20;;;;;;5098534;28;20040;-62
2021/03/07 09:58:06;;;;;;;3.72;2.15;;;18.10;93.40;;;;;;5092955;28;20021;-62
2021/03/07 10:00:34;;;;;;;5.38;2.50;;;18.20;93.00;;;;;;5108005;28;20046;-62
2021/03/07 10:03:00;;;;;;;5.65;2.28;;;18.40;93.40;;;;;;5101806;28;20035;-64
2021/03/07 10:05:26;;;;;;;3.53;2.00;;;18.50;93.10;;;;;;5094505;28;20476;-65
2021/03/07 10:07:52;;;;;;;4.63;1.90;;;18.50;93.30;;;;;;5094383;28;20028;-62
2021/03/07 10:10:25;;;;;;;4.53;2.20;;;18.60;93.20;;;;;;5092628;28;20040;-67
2021/03/07 10:12:56;;;;;;;5.18;1.98;;;18.70;93.30;;;;;;5103841;28;20036;-61
2021/03/07 10:15:26;;;;;;;9.48;2.55;;;18.80;93.10;;;;;;5099342;28;20027;-60
2021/03/07 10:17:53;;;;;;;6.07;2.17;;;18.90;93.40;;;;;;5092893;28;20495;-62
2021/03/07 10:20:18;;;;;;;4.55;1.77;;;19.00;92.90;;;;;;5096685;28;20123;-62
2021/03/07 10:22:46;;;;;;;4.53;1.83;;;19.00;92.70;;;;;;5104300;28;20697;-62
2021/03/07 10:25:29;;;;;;;4.57;2.40;;;19.00;92.20;;;;;;5095472;28;20088;-68
2021/03/07 10:27:59;;;;;;;3.45;1.90;;;19.10;92.00;;;;;;5093961;28;20495;-63
2021/03/07 10:30:39;;;;;;;3.35;2.13;;;19.20;91.60;;;;;;5094164;28;20040;-64
2021/03/07 10:33:09;;;;;;;3.53;1.80;;;19.20;90.80;;;;;;5112438;28;20027;-64
2021/03/07 10:35:36;;;;;;;3.83;1.85;;;19.30;90.60;;;;;;5096840;28;20086;-66
2021/03/07 10:38:02;;;;;;;4.53;1.90;;;19.40;90.50;;;;;;5105499;28;20434;-65
2021/03/07 10:40:34;;;;;;;3.97;1.80;;;19.40;90.30;;;;;;5101480;28;20028;-69
2021/03/07 10:43:03;;;;;;;3.47;1.90;;;19.50;90.20;;;;;;5098292;28;20032;-60
2021/03/07 10:45:30;;;;;;;3.03;1.50;;;19.60;90.10;;;;;;5092992;28;20051;-61
2021/03/07 10:48:01;;;;;;;2.95;1.58;;;19.70;90.00;;;;;;5106029;28;20035;-65
2021/03/07 10:50:27;;;;;;;3.45;1.48;;;19.70;89.70;;;;;;5091871;28;20032;-62
2021/03/07 10:52:53;;;;;;;3.13;1.73;;;19.80;89.50;;;;;;5100544;28;20019;-64
2021/03/07 10:55:19;;;;;;;3.08;1.98;;;19.90;89.30;;;;;;5098686;28;20070;-63
2021/03/07 10:57:45;;;;;;;2.03;1.45;;;19.90;89.20;;;;;;5091514;28;20073;-68
2021/03/07 11:00:12;;;;;;;3.22;1.60;;;20.10;89.00;;;;;;5106868;28;20098;-70
2021/03/07 11:02:38;;;;;;;3.45;1.40;;;20.20;89.10;;;;;;5093117;28;20016;-63
2021/03/07 11:05:05;;;;;;;2.03;1.50;;;20.30;89.40;;;;;;5096006;28;20030;-67
2021/03/07 11:07:30;;;;;;;3.58;1.42;;;20.30;89.10;;;;;;5092352;28;20036;-68
2021/03/07 11:09:56;;;;;;;2.22;1.45;;;20.40;90.20;;;;;;5103948;28;20040;-69
2021/03/07 11:12:21;;;;;;;3.17;1.48;;;20.50;89.80;;;;;;5092561;28;20025;-64
2021/03/07 11:14:47;;;;;;;2.95;1.40;;;20.60;89.30;;;;;;5099744;28;20028;-72
2021/03/07 11:17:13;;;;;;;2.45;1.48;;;20.70;89.00;;;;;;5095158;28;20024;-71
2021/03/07 11:19:38;;;;;;;2.08;1.17;;;20.80;89.90;;;;;;5093008;28;20036;-70
2021/03/07 11:22:04;;;;;;;3.88;1.60;;;20.80;88.80;;;;;;5099577;28;20035;-75
2021/03/07 11:24:30;;;;;;;2.65;1.52;;;20.90;89.40;;;;;;5092821;28;20028;-74
2021/03/07 11:26:55;;;;;;;4.20;1.70;;;21.00;88.90;;;;;;5102480;28;20047;-76
2021/03/07 11:29:21;;;;;;;2.65;1.35;;;21.10;88.70;;;;;;5098039;28;20036;-73
2021/03/07 11:31:47;;;;;;;2.20;1.40;;;21.10;89.10;;;;;;5092670;28;20035;-73
2021/03/07 11:34:13;;;;;;;1.67;1.25;;;21.20;89.70;;;;;;5107362;28;20024;-74
2021/03/07 11:36:38;;;;;;;2.78;1.58;;;21.20;88.60;;;;;;5091527;28;20032;-74
2021/03/07 11:39:04;;;;;;;2.92;1.25;;;21.30;88.50;;;;;;5090081;28;20031;-74
2021/03/07 11:41:30;;;;;;;4.38;1.33;;;21.30;88.70;;;;;;5102017;28;20028;-73
2021/03/07 11:43:55;;;;;;;3.20;1.27;;;21.40;88.50;;;;;;5087343;28;20027;-65
2021/03/07 11:46:21;;;;;;;2.30;1.20;;;21.40;88.40;;;;;;5092225;28;20024;-63
2021/03/07 11:48:47;;;;;;;2.70;1.40;;;21.40;87.90;;;;;;5090654;28;20123;-63
2021/03/07 11:51:12;;;;;;;2.33;1.40;;;21.40;88.40;;;;;;5102564;28;20020;-65
2021/03/07 11:53:38;;;;;;;2.35;1.33;;;21.40;88.20;;;;;;5094847;28;20101;-65
2021/03/07 11:56:04;;;;;;;5.20;1.27;;;21.50;87.40;;;;;;5090523;28;20066;-64
2021/03/07 11:58:33;;;;;;;3.10;1.33;;;21.50;87.00;;;;;;5098855;28;20024;-66
2021/03/07 12:00:58;;;;;;;2.20;1.35;;;21.60;86.80;;;;;;5092118;28;20035;-66
2021/03/07 12:03:24;;;;;;;3.17;1.70;;;21.50;86.70;;;;;;5087127;28;20024;-66
2021/03/07 12:05:49;;;;;;;2.67;1.30;;;21.60;87.10;;;;;;5091219;28;20032;-65
2021/03/07 12:08:15;;;;;;;3.75;1.30;;;21.50;87.30;;;;;;5092018;28;20467;-69
2021/03/07 12:10:41;;;;;;;3.58;1.15;;;21.40;87.30;;;;;;5092049;28;20037;-64
2021/03/07 12:13:06;;;;;;;5.07;1.48;;;21.40;88.00;;;;;;5084792;28;20353;-65
2021/03/07 12:15:32;;;;;;;3.72;1.10;;;21.20;88.80;;;;;;5091994;28;20024;-64
2021/03/07 12:17:58;;;;;;;2.92;1.20;;;21.00;89.70;;;;;;5091581;28;20012;-64
2021/03/07 12:20:24;;;;;;;3.97;1.70;;;20.90;90.60;;;;;;5092002;28;20059;-64
2021/03/07 12:22:49;;;;;;;2.67;1.60;;;20.80;90.20;;;;;;5102316;28;20023;-63
2021/03/07 12:25:15;;;;;;;3.67;1.63;;;20.80;90.20;;;;;;5112066;28;20027;-64
2021/03/07 12:27:42;;;;;;;14.65;1.85;;;20.80;89.90;;;;;;5112121;28;20074;-63
2021/03/07 12:30:09;;;;;;;3.15;1.70;;;20.80;90.50;;;;;;5111794;28;20127;-65
2021/03/07 12:32:34;;;;;;;8.80;1.85;;;20.70;90.40;;;;;;5103540;28;20055;-64
2021/03/07 12:35:00;;;;;;;2.80;1.35;;;20.80;90.80;;;;;;5103817;28;20094;-65
2021/03/07 12:37:26;;;;;;;3.63;1.52;;;20.70;91.20;;;;;;5110760;28;20360;-63
2021/03/07 12:39:51;;;;;;;2.97;1.30;;;20.60;91.30;;;;;;5111128;28;20028;-62
2021/03/07 12:42:18;;;;;;;3.33;1.30;;;20.60;91.20;;;;;;5090989;28;20028;-63
2021/03/07 12:44:44;;;;;;;3.72;1.77;;;20.60;90.90;;;;;;5089545;28;20103;-61
2021/03/07 12:47:09;;;;;;;5.03;1.48;;;20.50;91.00;;;;;;5091194;28;20044;-61
2021/03/07 12:49:35;;;;;;;5.95;1.55;;;20.50;91.80;;;;;;5091285;28;20383;-61
2021/03/07 12:52:01;;;;;;;7.60;1.50;;;20.50;92.40;;;;;;5091270;28;20095;-62